Time;durP1;ratioP1;P1;durP2;ratioP2;P2;SDS_P1;SDS_P2;PMS_P1;PMS_P2;Temp;Humidity;BMP_temperature;BMP_pressure;BME280_temperature;BME280_humidity;BME280_pressure;Samples;Min_cycle;Max_cycle;Signal;HPM_P1;HPM_P2
2023/05/02 00:00:57;;;;;;;11.35;5.67;;;;;;;8.99;43.11;99337.58;1638844;84;21037;-65
2023/05/02 00:03:25;;;;;;;9.65;5.65;;;;;;;8.97;43.18;99336.80;1640980;84;21009;-64
2023/05/02 00:05:51;;;;;;;13.40;6.47;;;;;;;8.96;43.37;99337.26;1640915;85;21473;-65
2023/05/02 00:08:17;;;;;;;12.05;6.08;;;;;;;8.95;43.40;99335.55;1637249;85;21073;-64
2023/05/02 00:10:44;;;;;;;11.43;5.50;;;;;;;8.95;43.50;99329.50;1650567;85;21035;-64
2023/05/02 00:13:11;;;;;;;8.30;5.75;;;;;;;9.00;43.45;99331.91;1649376;84;21066;-64
2023/05/02 00:15:37;;;;;;;14.53;6.00;;;;;;;8.99;43.39;99329.77;1649997;83;21679;-64
2023/05/02 00:18:04;;;;;;;8.83;5.42;;;;;;;9.00;43.51;99323.63;1651452;85;21046;-64
2023/05/02 00:20:30;;;;;;;12.07;5.70;;;;;;;8.99;43.75;99319.34;1663626;84;21017;-64
2023/05/02 00:22:57;;;;;;;8.93;5.60;;;;;;;9.00;43.92;99322.33;1652089;83;21064;-64
2023/05/02 00:25:23;;;;;;;9.00;5.67;;;;;;;9.02;43.76;99311.39;1649275;85;21285;-64
2023/05/02 00:27:50;;;;;;;15.23;6.10;;;;;;;9.05;43.84;99308.63;1660611;85;21074;-65
2023/05/02 00:30:17;;;;;;;11.53;5.40;;;;;;;9.09;43.83;99304.95;1659534;85;21434;-64
2023/05/02 00:32:43;;;;;;;;;;;;;;;9.09;43.85;99310.16;1650729;84;21026;-63
2023/05/02 00:35:10;;;;;;;8.83;4.75;;;;;;;9.15;44.75;99311.16;1656291;85;20160;-62
2023/05/02 00:37:36;;;;;;;12.70;5.80;;;;;;;9.14;44.05;99297.77;1655150;85;21066;-64
2023/05/02 00:40:06;;;;;;;8.88;5.75;;;;;;;9.15;44.29;99299.44;1656213;85;21078;-64
2023/05/02 00:42:34;;;;;;;9.63;5.60;;;;;;;9.16;44.14;99293.80;1657405;84;21070;-65
2023/05/02 00:45:05;;;;;;;14.75;6.12;;;;;;;9.16;44.18;99289.43;1658788;85;21047;-64
2023/05/02 00:47:31;;;;;;;11.12;5.70;;;;;;;9.17;44.23;99287.20;1658357;85;21042;-64
2023/05/02 00:49:59;;;;;;;8.53;5.53;;;;;;;9.22;44.35;99283.55;1658754;84;21054;-65
2023/05/02 00:52:27;;;;;;;8.80;5.15;;;;;;;9.25;44.57;99283.39;1659959;85;21153;-64
2023/05/02 00:54:53;;;;;;;9.80;5.55;;;;;;;9.25;44.49;99280.78;1656316;85;20976;-64
2023/05/02 00:57:20;;;;;;;11.45;5.53;;;;;;;9.25;44.48;99280.78;1648918;85;21034;-64
2023/05/02 00:59:46;;;;;;;10.43;5.25;;;;;;;9.31;44.56;99275.27;1656913;84;20995;-64
2023/05/02 01:02:33;;;;;;;8.60;5.35;;;;;;;9.31;44.64;99270.06;1660355;84;21078;-64
2023/05/02 01:05:18;;;;;;;8.65;5.85;;;;;;;9.32;44.65;99269.13;1659183;83;20966;-64
2023/05/02 01:07:51;;;;;;;9.95;5.42;;;;;;;9.31;44.83;99272.66;1649267;83;21134;-64
2023/05/02 01:10:24;;;;;;;14.33;6.47;;;;;;;9.31;44.79;99268.29;1655406;85;21575;-64
2023/05/02 01:13:00;;;;;;;11.20;5.83;;;;;;;9.38;44.96;99274.03;1654460;83;21080;-63
2023/05/02 01:15:29;;;;;;;14.65;5.62;;;;;;;9.41;44.86;99268.70;1659885;85;21659;-64
2023/05/02 01:17:58;;;;;;;9.50;5.53;;;;;;;9.36;44.93;99272.82;1651786;85;22767;-64
2023/05/02 01:20:28;;;;;;;10.50;5.80;;;;;;;9.34;44.96;99268.60;1654847;85;21003;-64
2023/05/02 01:22:58;;;;;;;7.17;5.05;;;;;;;9.28;45.19;99265.00;1660500;85;21695;-64
2023/05/02 01:25:49;;;;;;;9.80;5.83;;;;;;;9.27;45.07;99268.50;1646797;83;21672;-64
2023/05/02 01:28:22;;;;;;;15.20;6.30;;;;;;;9.29;45.28;99264.08;1582728;87;21036;-64
2023/05/02 01:30:55;;;;;;;8.35;5.65;;;;;;;9.27;45.22;99260.69;1594984;88;21139;-64
2023/05/02 01:33:20;;;;;;;10.43;5.37;;;;;;;9.26;45.25;99259.02;1607666;87;21054;-64
2023/05/02 01:35:52;;;;;;;16.93;6.42;;;;;;;9.18;45.24;99261.52;1587405;88;21080;-64
2023/05/02 01:38:20;;;;;;;12.88;5.92;;;;;;;9.18;45.41;99256.78;1636937;86;21042;-64
2023/05/02 01:40:49;;;;;;;10.20;6.25;;;;;;;9.16;45.39;99264.69;1661818;85;21064;-64
2023/05/02 01:43:17;;;;;;;9.80;6.05;;;;;;;9.21;45.52;99261.00;1660100;85;21524;-64
2023/05/02 01:45:48;;;;;;;10.68;5.85;;;;;;;9.26;45.52;99253.80;1660686;85;21065;-64
2023/05/02 01:48:17;;;;;;;11.28;5.97;;;;;;;9.32;45.51;99264.75;1658339;85;20940;-63
2023/05/02 01:50:45;;;;;;;9.50;5.83;;;;;;;9.33;45.58;99255.20;1661428;83;21065;-64
2023/05/02 01:53:14;;;;;;;10.03;5.92;;;;;;;9.34;45.67;99255.58;1654867;83;20981;-64
2023/05/02 01:55:42;;;;;;;10.82;5.70;;;;;;;9.36;45.64;99251.98;1662731;83;21066;-64
2023/05/02 01:58:11;;;;;;;13.93;5.55;;;;;;;9.39;45.77;99252.28;1663162;85;21090;-64
2023/05/02 02:00:40;;;;;;;8.70;5.53;;;;;;;9.41;45.81;99255.67;1659344;85;21003;-64
2023/05/02 02:03:10;;;;;;;9.68;5.75;;;;;;;9.45;45.65;99251.97;1658803;85;21026;-64
2023/05/02 02:05:39;;;;;;;11.12;6.08;;;;;;;9.47;45.64;99242.33;1657210;85;21576;-64
2023/05/02 02:08:06;;;;;;;8.70;5.10;;;;;;;9.47;45.68;99239.72;1659417;85;21042;-64
2023/05/02 02:10:36;;;;;;;10.43;5.75;;;;;;;9.45;45.63;99236.34;1624641;86;21074;-64
2023/05/02 02:13:12;;;;;;;13.50;5.62;;;;;;;9.37;45.70;99235.88;1619824;87;21014;-64
2023/05/02 02:15:41;;;;;;;8.70;5.12;;;;;;;9.40;45.78;99235.72;1622972;86;21033;-64
2023/05/02 02:18:17;;;;;;;10.85;6.12;;;;;;;9.38;45.85;99232.34;1590897;87;21112;-64
2023/05/02 02:20:45;;;;;;;15.50;6.35;;;;;;;9.35;45.90;99224.68;1618511;86;21056;-64
2023/05/02 02:23:14;;;;;;;10.08;5.72;;;;;;;9.33;45.83;99217.42;1606751;88;21043;-64
2023/05/02 02:25:43;;;;;;;11.43;5.62;;;;;;;9.30;45.81;99222.77;1612722;86;21074;-64
2023/05/02 02:28:09;;;;;;;11.50;6.00;;;;;;;9.24;45.90;99222.61;1612031;87;21009;-63
2023/05/02 02:30:36;;;;;;;13.93;6.37;;;;;;;9.21;45.95;99221.92;1613764;87;21830;-64
2023/05/02 02:33:03;;;;;;;13.43;6.83;;;;;;;9.17;45.92;99229.05;1609161;86;21615;-64
2023/05/02 02:35:33;;;;;;;15.85;6.03;;;;;;;9.11;46.07;99231.97;1604649;87;21072;-64
2023/05/02 02:38:35;;;;;;;9.65;5.70;;;;;;;9.09;46.14;99229.42;1607379;87;21286;-64
2023/05/02 02:41:17;;;;;;;8.08;5.72;;;;;;;9.09;46.15;99230.73;1607823;87;21073;-64
2023/05/02 02:44:05;;;;;;;9.25;5.85;;;;;;;9.08;46.31;99235.56;1614634;87;21049;-63
2023/05/02 02:46:57;;;;;;;10.75;6.22;;;;;;;9.00;46.14;99227.28;1613825;87;21076;-64
2023/05/02 02:49:42;;;;;;;13.88;5.92;;;;;;;8.91;46.25;99226.43;1618632;87;21029;-64
2023/05/02 02:52:25;;;;;;;11.53;6.58;;;;;;;8.89;46.38;99228.26;1586057;87;21060;-64
2023/05/02 02:54:54;;;;;;;10.88;6.30;;;;;;;8.91;46.55;99223.83;1609487;87;21586;-64
2023/05/02 02:57:46;;;;;;;14.07;6.97;;;;;;;8.98;46.50;99217.39;1607680;87;21002;-64
2023/05/02 03:00:24;;;;;;;8.80;5.47;;;;;;;9.00;46.60;99215.56;1608042;87;21025;-64
2023/05/02 03:02:52;;;;;;;11.80;6.28;;;;;;;8.98;46.58;99213.48;1611744;87;21108;-64
2023/05/02 03:05:20;;;;;;;15.00;6.92;;;;;;;9.02;46.60;99219.38;1608893;87;21085;-63
2023/05/02 03:07:47;;;;;;;10.38;5.90;;;;;;;9.07;46.64;99222.60;1612417;87;21002;-64
2023/05/02 03:10:13;;;;;;;13.62;6.92;;;;;;;9.08;46.61;99213.42;1615259;86;21084;-64
2023/05/02 03:12:40;;;;;;;8.78;5.90;;;;;;;9.14;46.65;99218.79;1668770;84;21123;-64
2023/05/02 03:15:15;;;;;;;11.05;6.25;;;;;;;9.12;46.71;99218.85;1667247;84;21568;-64
2023/05/02 03:17:42;;;;;;;13.05;7.10;;;;;;;9.15;46.83;99216.09;1674246;84;21608;-64
2023/05/02 03:20:09;;;;;;;10.28;5.85;;;;;;;9.14;46.88;99220.93;1674612;84;21196;-63
2023/05/02 03:22:37;;;;;;;12.47;5.85;;;;;;;9.15;46.97;99217.39;1661265;84;21065;-64
2023/05/02 03:25:05;;;;;;;10.30;6.50;;;;;;;9.19;46.91;99220.25;1661169;83;21011;-64
2023/05/02 03:27:31;;;;;;;10.93;6.85;;;;;;;9.19;47.06;99222.86;1656554;84;21056;-65
2023/05/02 03:29:57;;;;;;;9.13;6.40;;;;;;;9.14;47.05;99220.93;1650408;85;21509;-64
2023/05/02 03:32:23;;;;;;;9.00;5.97;;;;;;;9.14;47.14;99224.00;1648263;85;20960;-63
2023/05/02 03:34:50;;;;;;;13.40;7.05;;;;;;;9.17;47.23;99217.34;1659568;84;21032;-64
2023/05/02 03:37:16;;;;;;;12.47;6.33;;;;;;;9.24;47.22;99222.61;1661805;84;21641;-64
2023/05/02 03:39:43;;;;;;;11.08;5.90;;;;;;;9.25;47.33;99219.10;1659633;85;21039;-64
2023/05/02 03:42:09;;;;;;;;;;;;;;;9.28;47.32;99220.72;1665073;84;22244;-64
2023/05/02 03:44:36;;;;;;;10.48;6.72;;;;;;;9.35;47.63;99224.68;1659284;85;20171;-64
2023/05/02 03:47:02;;;;;;;11.33;6.00;;;;;;;9.43;47.42;99219.93;1664919;85;21035;-64
2023/05/02 03:49:28;;;;;;;9.43;6.40;;;;;;;9.41;47.40;99229.61;1660852;85;21035;-64
2023/05/02 03:51:55;;;;;;;11.85;7.00;;;;;;;9.36;47.46;99238.11;1661072;84;21029;-64
2023/05/02 03:54:21;;;;;;;10.90;6.33;;;;;;;9.34;47.54;99241.25;1663108;85;21081;-64
2023/05/02 03:56:47;;;;;;;11.53;7.25;;;;;;;9.30;47.56;99244.91;1660828;85;21076;-64
2023/05/02 03:59:14;;;;;;;11.20;6.60;;;;;;;9.28;47.78;99248.06;1656829;84;20979;-63
2023/05/02 04:01:40;;;;;;;9.23;6.20;;;;;;;9.26;47.82;99245.52;1658972;85;20955;-64
2023/05/02 04:04:07;;;;;;;8.98;5.85;;;;;;;9.29;47.92;99240.63;1661681;83;21546;-63
2023/05/02 04:06:33;;;;;;;9.70;6.35;;;;;;;9.29;47.99;99236.25;1658750;84;21221;-63
2023/05/02 04:09:00;;;;;;;12.28;6.45;;;;;;;9.21;47.94;99235.78;1657139;85;21571;-64
2023/05/02 04:11:26;;;;;;;8.50;5.93;;;;;;;9.22;48.10;99239.26;1672362;83;21136;-63
2023/05/02 04:13:53;;;;;;;11.70;6.05;;;;;;;9.27;48.22;99239.84;1666471;84;20992;-64
2023/05/02 04:16:19;;;;;;;12.97;7.00;;;;;;;9.33;48.30;99239.57;1673411;83;21270;-64
2023/05/02 04:18:46;;;;;;;10.38;5.90;;;;;;;9.35;48.16;99233.80;1667677;84;21044;-63
2023/05/02 04:21:12;;;;;;;12.40;5.80;;;;;;;9.40;48.27;99238.33;1671594;84;20988;-63
2023/05/02 04:23:39;;;;;;;9.20;4.92;;;;;;;9.50;48.33;99239.56;1671098;83;21153;-64
2023/05/02 04:26:06;;;;;;;19.67;6.22;;;;;;;9.55;48.37;99241.91;1676539;84;21533;-64
2023/05/02 04:28:32;;;;;;;10.23;5.95;;;;;;;9.62;48.48;99241.53;1668326;83;20997;-64
2023/05/02 04:30:59;;;;;;;9.23;4.97;;;;;;;9.64;48.44;99248.83;1670800;83;21152;-64
2023/05/02 04:33:25;;;;;;;10.18;5.58;;;;;;;9.70;48.59;99248.13;1675056;83;21083;-64
2023/05/02 04:35:51;;;;;;;11.75;6.97;;;;;;;9.79;48.84;99243.74;1677487;83;21081;-64
2023/05/02 04:38:18;;;;;;;11.57;5.47;;;;;;;9.87;48.63;99241.58;1674201;83;21549;-66
2023/05/02 04:40:45;;;;;;;10.18;5.50;;;;;;;9.90;48.68;99245.33;1674524;83;21152;-65
2023/05/02 04:43:11;;;;;;;10.35;5.45;;;;;;;9.98;48.81;99250.99;1674703;83;21014;-65
2023/05/02 04:45:41;;;;;;;11.38;4.85;;;;;;;10.17;48.88;99257.86;1672326;83;21871;-65
2023/05/02 04:48:08;;;;;;;8.70;5.40;;;;;;;10.29;48.79;99254.63;1673038;83;21041;-65
2023/05/02 04:50:35;;;;;;;12.00;4.90;;;;;;;10.45;48.86;99250.27;1672078;83;20991;-65
2023/05/02 04:53:02;;;;;;;7.33;4.53;;;;;;;10.63;48.88;99255.41;1667407;83;21010;-64
2023/05/02 04:55:29;;;;;;;;;;;;;;;10.78;48.84;99258.93;1673904;83;21116;-65
2023/05/02 04:58:01;;;;;;;6.55;4.30;;;;;;;10.96;49.02;99262.67;1677503;83;20477;-64
2023/05/02 05:00:36;;;;;;;6.50;4.33;;;;;;;11.15;48.88;99264.26;1675566;83;21079;-65
2023/05/02 05:03:06;;;;;;;8.85;4.17;;;;;;;11.39;48.81;99258.91;1674931;83;21087;-65
2023/05/02 05:05:33;;;;;;;6.90;4.17;;;;;;;11.62;48.78;99257.59;1673735;83;21089;-65
2023/05/02 05:07:59;;;;;;;6.65;4.12;;;;;;;11.76;48.58;99256.77;1664658;84;20963;-65
2023/05/02 05:10:26;;;;;;;4.97;3.75;;;;;;;11.91;48.52;99256.81;1659227;83;21059;-65
2023/05/02 05:12:53;;;;;;;8.30;4.17;;;;;;;12.03;48.49;99258.68;1646408;84;20975;-64
2023/05/02 05:15:22;;;;;;;6.87;3.93;;;;;;;12.14;48.32;99258.03;1651112;83;21102;-65
2023/05/02 05:17:49;;;;;;;6.25;3.62;;;;;;;12.22;48.32;99261.86;1648576;84;21038;-65
2023/05/02 05:20:15;;;;;;;5.70;3.83;;;;;;;12.29;48.26;99257.95;1645715;85;21015;-65
2023/05/02 05:22:42;;;;;;;11.08;3.67;;;;;;;12.33;48.21;99259.06;1649145;85;20964;-65
2023/05/02 05:25:10;;;;;;;5.47;3.60;;;;;;;12.33;48.08;99266.91;1648773;85;21050;-66
2023/05/02 05:27:37;;;;;;;6.08;3.33;;;;;;;12.34;47.95;99270.73;1649418;85;21040;-66
2023/05/02 05:30:04;;;;;;;8.10;3.95;;;;;;;12.29;47.79;99273.66;1652147;84;20987;-65
2023/05/02 05:32:33;;;;;;;5.37;3.72;;;;;;;12.19;47.75;99269.91;1649356;85;21064;-65
2023/05/02 05:34:59;;;;;;;7.28;3.42;;;;;;;12.12;47.75;99263.34;1646463;84;20999;-65
2023/05/02 05:37:27;;;;;;;5.05;3.30;;;;;;;12.04;47.77;99266.89;1645735;85;21063;-65
2023/05/02 05:39:54;;;;;;;6.08;3.25;;;;;;;11.90;47.71;99270.81;1651818;85;21494;-66
2023/05/02 05:42:20;;;;;;;8.25;3.58;;;;;;;11.92;47.89;99268.95;1654357;84;21098;-65
2023/05/02 05:44:50;;;;;;;6.50;3.80;;;;;;;12.03;47.86;99269.98;1654307;84;21065;-64
2023/05/02 05:47:25;;;;;;;6.20;3.40;;;;;;;12.08;47.58;99254.02;1650718;85;21033;-65
2023/05/02 05:49:55;;;;;;;5.50;3.22;;;;;;;12.08;47.58;99254.02;1633798;85;21047;-65
2023/05/02 05:52:22;;;;;;;5.60;3.42;;;;;;;12.23;47.64;99276.63;1646738;84;21006;-66
2023/05/02 05:57:37;;;;;;;5.37;3.72;;;;;;;12.39;47.94;99288.78;1696037;83;20997;-63
2023/05/02 06:00:07;;;;;;;9.33;3.90;;;;;;;12.49;48.04;99263.25;1698396;83;21035;-63
2023/05/02 06:02:33;;;;;;;6.10;3.10;;;;;;;12.97;47.92;99293.83;1696557;83;21098;-64
2023/05/02 06:04:59;;;;;;;5.05;3.25;;;;;;;13.10;47.68;99291.24;1698655;81;21141;-63
2023/05/02 06:07:26;;;;;;;7.97;3.80;;;;;;;13.18;47.70;99296.83;1698722;83;21019;-64
2023/05/02 06:09:52;;;;;;;7.42;3.60;;;;;;;13.26;47.81;99302.93;1698383;83;21036;-63
2023/05/02 06:12:20;;;;;;;7.87;3.80;;;;;;;13.49;47.88;99302.73;1698352;83;20983;-63
2023/05/02 06:14:46;;;;;;;4.90;3.50;;;;;;;13.79;47.84;99299.02;1699381;83;20958;-63
2023/05/02 06:17:14;;;;;;;;;;;;;;;14.07;47.88;99301.45;1700045;83;20978;-64
2023/05/02 06:19:41;;;;;;;;;;;;;;;14.38;47.89;99296.70;1702531;83;20230;-64
2023/05/02 06:22:07;;;;;;;8.30;3.53;;;;;;;14.71;47.67;99293.53;1699198;83;20154;-64
2023/05/02 06:24:33;;;;;;;7.50;3.00;;;;;;;14.89;47.34;99301.88;1698965;83;21270;-64
2023/05/02 06:27:00;;;;;;;5.00;3.25;;;;;;;15.08;47.39;99301.39;1698196;83;21029;-64
2023/05/02 06:29:26;;;;;;;5.37;2.80;;;;;;;15.37;47.46;99301.88;1698606;83;21081;-63
2023/05/02 06:31:55;;;;;;;2.87;2.50;;;;;;;15.55;47.29;99304.12;1697568;83;21038;-64
2023/05/02 06:34:23;;;;;;;9.40;3.40;;;;;;;15.86;47.19;99303.52;1698192;83;21304;-63
2023/05/02 06:36:54;;;;;;;5.58;3.00;;;;;;;16.15;47.06;99309.67;1698955;83;21477;-63
2023/05/02 06:39:20;;;;;;;4.62;3.17;;;;;;;16.41;46.91;99305.49;1698299;83;21040;-63
2023/05/02 06:41:50;;;;;;;6.70;2.83;;;;;;;16.68;46.80;99312.55;1703188;81;21006;-63
2023/05/02 06:44:16;;;;;;;5.25;2.77;;;;;;;16.95;46.87;99314.00;1697294;83;21049;-63
2023/05/02 06:46:42;;;;;;;4.83;2.72;;;;;;;17.40;46.71;99309.91;1699087;83;20963;-64
2023/05/02 06:49:09;;;;;;;6.75;3.30;;;;;;;17.88;46.57;99312.11;1698735;83;21018;-64
2023/05/02 06:51:35;;;;;;;5.45;2.98;;;;;;;18.30;46.64;99309.43;1699705;83;21054;-63
2023/05/02 06:54:02;;;;;;;5.03;2.55;;;;;;;18.77;46.36;99305.82;1698387;83;20966;-64
2023/05/02 06:56:29;;;;;;;8.95;2.75;;;;;;;19.13;46.21;99308.80;1699333;82;21050;-64
2023/05/02 06:58:57;;;;;;;6.15;3.27;;;;;;;19.47;46.14;99311.08;1700704;83;21659;-63
2023/05/02 07:01:23;;;;;;;6.47;3.22;;;;;;;19.92;45.96;99306.55;1697017;83;21513;-63
2023/05/02 07:03:51;;;;;;;4.58;2.33;;;;;;;20.48;45.33;99313.63;1699091;83;21569;-62
2023/05/02 07:06:18;;;;;;;8.78;2.60;;;;;;;20.94;44.63;99319.85;1697286;83;21006;-62
2023/05/02 07:08:46;;;;;;;5.90;2.50;;;;;;;21.39;44.36;99313.71;1706236;81;21072;-62
2023/05/02 07:11:12;;;;;;;5.05;2.75;;;;;;;21.89;43.79;99319.28;1705746;83;21006;-62
2023/05/02 07:13:39;;;;;;;4.63;2.70;;;;;;;22.49;43.50;99323.86;1705133;81;20979;-62
2023/05/02 07:16:06;;;;;;;5.20;2.50;;;;;;;22.94;42.98;99324.04;1704887;83;21026;-62
2023/05/02 07:18:33;;;;;;;5.20;2.75;;;;;;;23.39;42.72;99326.84;1706422;82;21069;-62
2023/05/02 07:21:00;;;;;;;10.45;2.70;;;;;;;23.99;42.07;99336.88;1705754;83;21513;-61
2023/05/02 07:23:27;;;;;;;6.22;2.50;;;;;;;24.50;41.92;99325.45;1706852;82;21466;-62
2023/05/02 07:25:53;;;;;;;;;;;;;;;25.11;41.65;99334.53;1711036;83;21537;-61
2023/05/02 07:28:19;;;;;;;11.55;3.22;;;;;;;25.51;39.44;99329.96;1668200;84;20154;-62
2023/05/02 07:30:47;;;;;;;6.28;2.37;;;;;;;25.57;39.66;99341.30;1695987;83;20994;-62
2023/05/02 07:33:14;;;;;;;4.22;2.35;;;;;;;25.45;39.48;99340.03;1699503;82;21121;-63
2023/05/02 07:35:42;;;;;;;5.37;2.80;;;;;;;25.17;38.90;99340.53;1700352;82;21047;-62
2023/05/02 07:38:08;;;;;;;6.10;2.33;;;;;;;25.59;39.48;99350.46;1703573;83;21070;-62
2023/05/02 07:40:34;;;;;;;5.12;2.55;;;;;;;26.43;38.55;99339.70;1703010;82;21057;-63
2023/05/02 07:43:02;;;;;;;6.87;2.37;;;;;;;26.72;37.97;99351.80;1701902;83;21013;-63
2023/05/02 07:45:29;;;;;;;6.47;2.37;;;;;;;27.08;36.85;99338.09;1693062;82;21152;-63
2023/05/02 07:47:55;;;;;;;9.08;2.77;;;;;;;27.66;37.30;99344.31;1701203;82;20936;-63
2023/05/02 07:50:22;;;;;;;5.87;2.20;;;;;;;28.88;37.03;99345.83;1705082;83;20971;-63
2023/05/02 07:52:48;;;;;;;5.72;2.27;;;;;;;29.87;36.26;99353.34;1702156;82;21030;-63
2023/05/02 07:55:15;;;;;;;5.70;2.02;;;;;;;30.92;35.47;99343.48;1699746;82;21076;-62
2023/05/02 07:57:41;;;;;;;6.60;2.58;;;;;;;31.74;35.14;99350.39;1706238;82;21687;-63
2023/05/02 08:00:09;;;;;;;;;;;;;;;31.86;34.39;99352.67;1702966;83;21024;-63
2023/05/02 08:02:35;;;;;;;5.12;1.92;;;;;;;31.98;32.05;99357.38;1704526;82;20578;-63
2023/05/02 08:05:05;;;;;;;15.00;2.98;;;;;;;32.13;32.89;99361.94;1680308;82;21066;-63
2023/05/02 08:07:32;;;;;;;7.53;2.10;;;;;;;33.04;32.13;99369.02;1703898;83;21053;-64
2023/05/02 08:09:58;;;;;;;6.17;1.77;;;;;;;33.71;30.41;99368.94;1703011;83;21046;-64
2023/05/02 08:12:25;;;;;;;4.05;1.82;;;;;;;33.84;29.13;99367.38;1700595;82;21003;-63
2023/05/02 08:14:51;;;;;;;12.07;2.45;;;;;;;33.79;30.09;99374.02;1703390;82;21045;-63
2023/05/02 08:17:20;;;;;;;4.17;2.00;;;;;;;34.07;29.44;99373.38;1701830;83;21093;-64
2023/05/02 08:19:48;;;;;;;5.95;2.05;;;;;;;34.15;27.91;99378.98;1678339;83;21049;-64
2023/05/02 08:22:14;;;;;;;4.35;2.30;;;;;;;34.15;27.91;99378.98;1701728;83;21510;-64
2023/05/02 08:24:41;;;;;;;6.83;2.72;;;;;;;34.17;28.28;99364.66;1699305;83;21089;-64
2023/05/02 08:27:07;;;;;;;4.60;2.42;;;;;;;34.82;26.91;99380.79;1701435;83;20954;-64
2023/05/02 08:29:34;;;;;;;4.40;2.05;;;;;;;34.91;26.79;99384.77;1699645;83;21014;-62
2023/05/02 08:32:00;;;;;;;5.83;2.42;;;;;;;34.91;26.46;99395.62;1698816;82;21517;-62
2023/05/02 08:34:26;;;;;;;4.15;2.30;;;;;;;35.22;25.48;99390.84;1703137;82;20955;-62
2023/05/02 08:36:52;;;;;;;4.95;2.10;;;;;;;35.27;24.94;99392.83;1700689;82;21208;-64
2023/05/02 08:39:19;;;;;;;8.18;2.20;;;;;;;35.71;25.26;99392.59;1703715;83;21691;-65
2023/05/02 08:41:45;;;;;;;7.03;2.10;;;;;;;36.30;24.97;99388.14;1702422;83;21021;-64
2023/05/02 08:44:11;;;;;;;5.60;2.00;;;;;;;36.23;24.29;99404.59;1701467;82;21034;-62
2023/05/02 08:46:40;;;;;;;5.47;2.02;;;;;;;36.57;23.96;99410.02;1704002;82;21003;-62
2023/05/02 08:49:08;;;;;;;9.08;2.25;;;;;;;37.23;23.71;99410.08;1698552;83;21045;-62
2023/05/02 08:51:36;;;;;;;4.67;2.30;;;;;;;37.13;22.45;99408.05;1693516;83;21066;-61
2023/05/02 08:54:03;;;;;;;3.50;2.17;;;;;;;35.67;22.18;99422.66;1699090;83;21730;-62
2023/05/02 08:56:29;;;;;;;4.10;2.42;;;;;;;34.25;22.28;99434.22;1695039;82;21133;-62
2023/05/02 08:58:56;;;;;;;8.15;3.02;;;;;;;33.61;22.54;99438.02;1683503;82;20959;-61
2023/05/02 09:01:25;;;;;;;28.45;5.37;;;;;;;33.92;22.46;99444.73;1684525;84;21518;-61
2023/05/02 09:03:53;;;;;;;10.88;3.83;;;;;;;34.39;21.71;99438.89;1686497;82;20967;-62
2023/05/02 09:06:21;;;;;;;4.85;3.37;;;;;;;34.53;21.83;99456.59;1682047;84;21058;-62
2023/05/02 09:08:53;;;;;;;9.03;4.08;;;;;;;34.53;21.83;99456.59;1684911;82;21423;-62
2023/05/02 09:11:21;;;;;;;5.65;3.45;;;;;;;34.25;21.63;99453.72;1681261;84;21014;-65
2023/05/02 09:13:50;;;;;;;9.78;4.22;;;;;;;32.98;21.18;99459.96;1685311;84;21065;-66
2023/05/02 09:16:24;;;;;;;6.80;4.12;;;;;;;31.27;21.25;99464.45;1684796;84;21439;-65
2023/05/02 09:18:53;;;;;;;5.03;4.30;;;;;;;29.54;21.73;99475.14;1684424;82;21470;-66
2023/05/02 09:21:21;;;;;;;5.95;4.33;;;;;;;27.99;22.26;99488.19;1678512;82;20991;-65
2023/05/02 09:23:50;;;;;;;5.45;4.45;;;;;;;26.91;22.45;99490.17;1655412;84;21071;-67
2023/05/02 09:26:23;;;;;;;8.08;4.95;;;;;;;26.02;22.73;99497.45;1672371;82;21011;-68
2023/05/02 09:28:51;;;;;;;5.53;4.87;;;;;;;25.30;23.40;99499.47;1673736;83;20952;-67
2023/05/02 09:31:26;;;;;;;8.95;5.10;;;;;;;24.42;23.91;99505.05;1677347;83;20983;-69
2023/05/02 09:33:54;;;;;;;8.40;5.07;;;;;;;23.28;23.85;99513.61;1672498;83;21015;-68
2023/05/02 09:36:21;;;;;;;10.90;5.40;;;;;;;22.39;25.16;99531.11;1678070;84;20940;-71
2023/05/02 09:38:48;;;;;;;8.13;5.17;;;;;;;21.76;24.78;99526.14;1676776;83;21042;-67
2023/05/02 09:41:16;;;;;;;5.83;4.50;;;;;;;21.97;27.25;99533.00;1679722;84;21038;-70
2023/05/02 09:43:45;;;;;;;6.35;5.05;;;;;;;22.50;25.54;99534.86;1682452;84;21035;-67
2023/05/02 09:46:12;;;;;;;6.90;4.67;;;;;;;23.08;25.94;99530.79;1683870;84;21038;-67
2023/05/02 09:48:56;;;;;;;6.22;3.98;;;;;;;23.40;26.72;99533.63;1681668;84;21091;-66
2023/05/02 09:51:24;;;;;;;5.28;4.50;;;;;;;23.44;26.60;99539.00;1677140;82;21059;-67
2023/05/02 09:53:51;;;;;;;4.62;4.17;;;;;;;24.28;27.67;99543.94;1683964;84;21108;-69
2023/05/02 09:56:17;;;;;;;;;;;;;;;25.57;27.30;99543.13;1684440;82;21075;-71
2023/05/02 09:58:45;;;;;;;7.62;4.33;;;;;;;25.85;27.40;99548.02;1679947;84;20989;-71
2023/05/02 10:01:17;;;;;;;7.00;4.83;;;;;;;26.25;27.85;99548.81;1680759;84;21056;-70
2023/05/02 10:03:48;;;;;;;10.13;4.87;;;;;;;27.42;27.86;99542.08;1680996;82;20967;-71
2023/05/02 10:06:17;;;;;;;8.45;5.03;;;;;;;27.76;27.60;99543.33;1682542;84;21094;-70
2023/05/02 10:08:46;;;;;;;6.50;5.33;;;;;;;27.62;27.59;99547.69;1690355;83;21027;-71
2023/05/02 10:11:14;;;;;;;6.95;4.87;;;;;;;27.27;27.74;99553.29;1677265;84;21039;-69
2023/05/02 10:13:43;;;;;;;9.10;5.03;;;;;;;26.86;27.89;99556.38;1681793;84;21114;-69
2023/05/02 10:16:11;;;;;;;7.15;5.17;;;;;;;26.55;28.10;99555.11;1689236;82;20963;-68
2023/05/02 10:18:59;;;;;;;7.40;5.20;;;;;;;26.97;28.38;99570.67;1681109;84;21071;-69
2023/05/02 10:21:32;;;;;;;5.95;5.35;;;;;;;27.36;28.01;99558.91;1679471;84;21593;-72
2023/05/02 10:23:56;;;;;;;7.05;5.55;;;;;;;27.64;28.33;99571.63;1661126;84;21538;-69
2023/05/02 10:26:25;;;;;;;6.45;5.05;;;;;;;27.40;27.91;99576.27;1679151;84;21089;-68
2023/05/02 10:28:52;;;;;;;7.92;5.45;;;;;;;26.47;27.85;99580.09;1680420;83;21443;-65
2023/05/02 10:31:21;;;;;;;17.48;5.50;;;;;;;25.37;28.16;99585.44;1674661;84;21795;-68
2023/05/02 10:33:51;;;;;;;13.90;5.83;;;;;;;24.26;28.61;99589.95;1677466;84;21533;-67
2023/05/02 10:36:20;;;;;;;10.10;6.00;;;;;;;23.19;30.40;99598.44;1677002;84;21106;-66
2023/05/02 10:38:49;;;;;;;8.20;5.10;;;;;;;22.06;29.24;99600.71;1680577;84;21110;-68
2023/05/02 10:41:22;;;;;;;10.78;6.05;;;;;;;21.52;30.21;99609.02;1680720;84;21027;-68
2023/05/02 10:43:49;;;;;;;11.05;6.05;;;;;;;21.02;29.76;99607.93;1684179;83;21588;-68
2023/05/02 10:46:36;;;;;;;6.75;6.00;;;;;;;20.10;30.71;99612.26;1678761;84;21569;-68
2023/05/02 10:49:10;;;;;;;7.90;6.08;;;;;;;19.21;30.63;99625.23;1662519;84;21493;-68
2023/05/02 10:51:41;;;;;;;9.25;7.03;;;;;;;18.60;33.42;99630.31;1656621;85;20974;-67
2023/05/02 10:54:20;;;;;;;9.43;7.25;;;;;;;18.00;32.18;99638.62;1658848;85;21445;-68
2023/05/02 10:57:04;;;;;;;8.88;6.65;;;;;;;17.48;33.82;99646.66;1654075;85;20983;-70
2023/05/02 10:59:39;;;;;;;9.35;7.22;;;;;;;17.12;34.42;99647.18;1690865;82;21454;-69
2023/05/02 11:02:26;;;;;;;8.00;6.85;;;;;;;17.05;34.35;99649.91;1692600;83;21351;-71
2023/05/02 11:05:02;;;;;;;6.10;5.47;;;;;;;16.51;35.43;99658.29;1697907;82;21089;-70
2023/05/02 11:07:31;;;;;;;5.70;4.20;;;;;;;15.81;37.49;99678.16;1690830;83;21125;-70
2023/05/02 11:10:19;;;;;;;5.17;4.10;;;;;;;14.94;37.58;99696.73;1698450;82;21487;-71
2023/05/02 11:12:59;;;;;;;4.20;3.40;;;;;;;14.16;38.88;99698.23;1691444;82;21652;-68
2023/05/02 11:18:07;;;;;;;3.90;2.70;;;;;;;13.61;44.42;99709.88;1628255;84;21066;-68
2023/05/02 11:20:43;;;;;;;3.42;2.40;;;;;;;13.59;43.15;99714.36;1660880;85;21035;-68
2023/05/02 11:23:20;;;;;;;3.20;2.42;;;;;;;13.70;41.68;99711.57;1659571;84;21375;-65
2023/05/02 11:25:53;;;;;;;3.37;2.87;;;;;;;13.85;40.40;99715.88;1656739;84;21564;-75
2023/05/02 11:28:41;;;;;;;4.60;3.25;;;;;;;13.88;40.77;99724.88;1657149;84;21554;-71
2023/05/02 11:31:30;;;;;;;3.83;3.45;;;;;;;13.95;40.58;99728.83;1661971;84;20983;-71
2023/05/02 11:33:58;;;;;;;4.22;3.47;;;;;;;14.23;41.32;99731.06;1647607;85;21039;-66
2023/05/02 11:36:33;;;;;;;4.58;3.47;;;;;;;14.13;41.00;99743.06;1660952;84;21473;-66
2023/05/02 11:39:02;;;;;;;6.47;4.35;;;;;;;13.92;42.18;99753.08;1657515;84;21006;-67
2023/05/02 11:41:41;;;;;;;6.62;4.80;;;;;;;13.60;41.57;99754.08;1649272;84;21483;-69
2023/05/02 11:44:07;;;;;;;5.42;4.50;;;;;;;13.39;42.13;99769.78;1654631;85;20979;-65
2023/05/02 11:46:38;;;;;;;4.43;3.80;;;;;;;13.18;42.30;99770.03;1659980;86;21522;-69
2023/05/02 11:49:12;;;;;;;4.90;3.85;;;;;;;13.04;43.00;99771.28;1634364;86;22551;-70
2023/05/02 11:51:37;;;;;;;4.45;3.15;;;;;;;12.94;43.03;99778.00;1661398;85;21053;-70